Time;durP1;ratioP1;P1;durP2;ratioP2;P2;SDS_P1;SDS_P2;PMS_P1;PMS_P2;Temp;Humidity;BMP_temperature;BMP_pressure;BME280_temperature;BME280_humidity;BME280_pressure;Samples;Min_cycle;Max_cycle;Signal;HPM_P1;HPM_P2
2023/05/05 00:00:57;;;;;;;2.13;1.93;;;14.10;59.90;14.10;96570.00;;;;5083519;28;20491;-80
2023/05/05 00:03:25;;;;;;;2.57;2.37;;;14.10;59.80;14.10;96580.00;;;;5089664;28;20234;-80
2023/05/05 00:05:54;;;;;;;2.27;2.07;;;14.10;59.80;14.00;96564.00;;;;5078404;28;20192;-80
2023/05/05 00:08:22;;;;;;;2.17;1.97;;;14.00;59.80;14.00;96573.00;;;;5076481;28;20284;-81
2023/05/05 00:10:51;;;;;;;2.30;2.10;;;14.00;59.90;14.00;96567.00;;;;5081022;28;20255;-81
2023/05/05 00:13:20;;;;;;;2.20;2.00;;;13.90;60.00;13.90;96561.00;;;;5087538;28;20591;-81
2023/05/05 00:15:51;;;;;;;4.33;2.00;;;13.90;60.00;13.90;96562.00;;;;5078373;28;20200;-80
2023/05/05 00:18:18;;;;;;;3.00;2.20;;;13.80;60.20;13.80;96563.00;;;;5084954;28;20223;-81
2023/05/05 00:20:47;;;;;;;2.67;2.10;;;13.80;60.40;13.80;96567.00;;;;5084598;28;20282;-81
2023/05/05 00:23:15;;;;;;;1.83;1.73;;;13.80;60.50;13.80;96564.00;;;;5085895;28;20310;-81
2023/05/05 00:25:42;;;;;;;2.73;2.03;;;13.70;60.30;13.70;96564.00;;;;5087757;28;20270;-82
2023/05/05 00:28:09;;;;;;;2.07;1.97;;;13.70;60.30;13.70;96562.00;;;;5076727;28;20228;-81
2023/05/05 00:30:37;;;;;;;2.30;1.83;;;13.70;60.50;13.70;96561.00;;;;5066726;28;20237;-81
2023/05/05 00:33:05;;;;;;;2.50;1.90;;;13.60;60.60;13.70;96567.00;;;;5073733;28;20237;-81
2023/05/05 00:35:33;;;;;;;2.90;2.00;;;13.60;60.80;13.70;96572.00;;;;5061259;28;20271;-81
2023/05/05 00:38:00;;;;;;;2.80;1.87;;;13.60;61.00;13.60;96565.00;;;;5075942;28;20192;-81
2023/05/05 00:40:28;;;;;;;2.77;1.93;;;13.60;60.90;13.60;96575.00;;;;5073739;28;20204;-81
2023/05/05 00:42:55;;;;;;;2.13;1.93;;;13.60;60.90;13.60;96564.00;;;;5071889;28;20208;-80
2023/05/05 00:45:22;;;;;;;2.10;1.90;;;13.50;60.80;13.50;96567.00;;;;5078668;28;20200;-81
2023/05/05 00:47:53;;;;;;;2.10;2.00;;;13.50;60.80;13.40;96565.00;;;;5080037;28;20200;-81
2023/05/05 00:50:25;;;;;;;2.83;1.97;;;13.40;60.90;13.40;96560.00;;;;5074116;28;20720;-81
2023/05/05 00:52:55;;;;;;;3.83;1.87;;;13.40;61.00;13.40;96561.00;;;;5078519;28;20208;-81
2023/05/05 00:55:22;;;;;;;2.10;1.70;;;13.40;61.10;13.30;96560.00;;;;5089087;28;20278;-82
2023/05/05 00:57:50;;;;;;;2.23;2.00;;;13.30;61.10;13.30;96564.00;;;;5077045;28;20198;-81
2023/05/05 01:00:17;;;;;;;2.77;2.13;;;13.30;61.30;13.30;96565.00;;;;5094103;28;20279;-81
2023/05/05 01:02:45;;;;;;;2.43;1.97;;;13.20;61.40;13.20;96562.00;;;;5088413;28;20207;-81
2023/05/05 01:05:15;;;;;;;2.77;2.17;;;13.20;61.40;13.10;96561.00;;;;5093750;28;20544;-82
2023/05/05 01:08:10;;;;;;;2.33;2.13;;;13.20;61.60;13.10;96564.00;;;;5065573;28;20692;-82
2023/05/05 01:10:45;;;;;;;3.50;1.80;;;13.10;61.90;13.10;96551.00;;;;5068011;28;20265;-81
2023/05/05 01:13:31;;;;;;;2.30;2.10;;;13.10;61.80;13.10;96552.00;;;;5079025;28;20215;-81
2023/05/05 01:16:07;;;;;;;2.83;2.20;;;13.10;62.10;13.00;96555.00;;;;5081646;28;20195;-82
2023/05/05 01:18:44;;;;;;;2.30;2.10;;;13.00;62.10;13.00;96554.00;;;;5076663;28;20204;-81
2023/05/05 01:21:19;;;;;;;2.50;1.93;;;13.00;62.40;13.00;96550.00;;;;5072064;28;20227;-81
2023/05/05 01:24:27;;;;;;;2.00;1.90;;;13.00;62.60;13.00;96549.00;;;;5073838;28;20783;-82
2023/05/05 01:27:38;;;;;;;2.87;2.30;;;12.90;63.00;12.90;96543.00;;;;5068775;28;20672;-81
2023/05/05 01:30:35;;;;;;;2.30;2.20;;;12.90;62.90;12.90;96541.00;;;;5070748;28;20191;-82
2023/05/05 01:33:10;;;;;;;2.40;2.20;;;12.90;62.30;12.90;96544.00;;;;5076790;28;20216;-81
2023/05/05 01:35:43;;;;;;;2.40;2.20;;;12.90;62.30;12.90;96541.00;;;;5073891;28;20294;-82
2023/05/05 01:38:18;;;;;;;2.83;2.00;;;12.90;62.50;12.90;96538.00;;;;5074444;28;20271;-82
2023/05/05 01:40:52;;;;;;;2.53;2.33;;;12.90;62.50;12.80;96540.00;;;;5079818;28;20187;-81
2023/05/05 01:43:23;;;;;;;2.33;2.13;;;12.90;62.30;12.80;96537.00;;;;5076959;28;20634;-81
2023/05/05 01:45:53;;;;;;;3.03;1.87;;;12.80;62.20;12.80;96540.00;;;;5091035;28;20653;-81
2023/05/05 01:48:24;;;;;;;2.60;2.40;;;12.80;62.20;12.80;96539.00;;;;5076254;28;20840;-81
2023/05/05 01:50:53;;;;;;;2.10;1.93;;;12.80;62.30;12.80;96539.00;;;;5088088;28;20278;-81
2023/05/05 01:53:25;;;;;;;2.73;2.40;;;12.80;62.50;12.70;96536.00;;;;5087843;28;20242;-81
2023/05/05 01:55:55;;;;;;;2.20;2.00;;;12.80;62.60;12.70;96541.00;;;;5088402;28;20218;-80
2023/05/05 01:58:25;;;;;;;3.00;2.23;;;12.80;62.50;12.70;96539.00;;;;5076188;28;20287;-80
2023/05/05 02:00:54;;;;;;;7.10;2.30;;;12.70;62.60;12.70;96543.00;;;;5074318;28;20278;-81
2023/05/05 02:03:24;;;;;;;2.47;2.27;;;12.70;62.70;12.70;96537.00;;;;5078482;28;20302;-81
2023/05/05 02:05:53;;;;;;;3.03;2.40;;;12.70;63.00;12.70;96541.00;;;;5096337;28;20279;-81
2023/05/05 02:08:22;;;;;;;2.13;1.77;;;12.70;63.10;12.70;96542.00;;;;5087402;28;20199;-81
2023/05/05 02:10:52;;;;;;;3.33;2.00;;;12.70;63.20;12.60;96545.00;;;;5082130;28;20199;-81
2023/05/05 02:13:23;;;;;;;1.87;1.77;;;12.70;63.20;12.60;96541.00;;;;5078794;28;20287;-81
2023/05/05 02:15:52;;;;;;;2.50;2.03;;;12.60;63.30;12.60;96544.00;;;;5083039;28;20188;-81
2023/05/05 02:18:22;;;;;;;2.70;2.50;;;12.60;63.40;12.60;96553.00;;;;5075150;28;20572;-81
2023/05/05 02:20:51;;;;;;;2.50;2.30;;;12.60;63.50;12.50;96550.00;;;;5077301;28;20635;-82
2023/05/05 02:23:20;;;;;;;2.00;1.90;;;12.50;63.50;12.50;96547.00;;;;5079601;28;20231;-81
2023/05/05 02:25:55;;;;;;;2.23;1.83;;;12.50;63.70;12.50;96550.00;;;;5079105;28;20253;-81
2023/05/05 02:28:33;;;;;;;2.37;1.93;;;12.50;64.00;12.50;96545.00;;;;5073880;28;20223;-81
2023/05/05 02:31:02;;;;;;;2.47;2.27;;;12.50;64.20;12.50;96551.00;;;;5076093;28;20218;-81
2023/05/05 02:33:34;;;;;;;2.80;2.60;;;12.50;64.40;12.50;96557.00;;;;5080397;28;20218;-80
2023/05/05 02:36:11;;;;;;;2.63;2.43;;;12.50;64.40;12.50;96545.00;;;;5081772;28;20570;-81
2023/05/05 02:38:43;;;;;;;2.33;2.20;;;12.50;64.30;12.50;96557.00;;;;5072339;28;20668;-81
2023/05/05 02:41:16;;;;;;;2.40;2.20;;;12.40;64.10;12.40;96552.00;;;;5088577;28;20191;-81
2023/05/05 02:43:46;;;;;;;2.43;2.23;;;12.40;64.10;12.40;96549.00;;;;5087372;28;20216;-83
2023/05/05 02:46:14;;;;;;;2.60;2.40;;;12.40;64.10;12.40;96547.00;;;;5077125;28;20283;-81
2023/05/05 02:48:42;;;;;;;2.87;2.60;;;12.40;64.20;12.40;96547.00;;;;5089264;28;20264;-80
2023/05/05 02:51:09;;;;;;;3.00;2.57;;;12.40;64.20;12.40;96546.00;;;;5083250;28;20203;-81
2023/05/05 02:53:37;;;;;;;3.90;2.40;;;12.40;64.20;12.40;96553.00;;;;5076108;28;20215;-80
2023/05/05 02:56:17;;;;;;;2.60;2.40;;;12.30;64.40;12.30;96542.00;;;;5082046;28;20188;-81
2023/05/05 02:58:54;;;;;;;2.30;2.10;;;12.30;64.30;12.30;96550.00;;;;5084103;28;20195;-81
2023/05/05 03:01:34;;;;;;;2.67;2.47;;;12.30;64.20;12.30;96547.00;;;;5078419;28;20286;-80
2023/05/05 03:04:10;;;;;;;2.83;2.47;;;12.30;64.40;12.30;96548.00;;;;5078750;28;20216;-80
2023/05/05 03:06:43;;;;;;;2.50;2.30;;;12.20;64.50;12.30;96545.00;;;;5082587;28;20458;-81
2023/05/05 03:09:21;;;;;;;3.63;2.33;;;12.30;64.70;12.20;96548.00;;;;5088314;28;20732;-82
2023/05/05 03:11:55;;;;;;;2.90;2.17;;;12.20;64.50;12.20;96551.00;;;;5044681;28;20220;-81
2023/05/05 03:14:23;;;;;;;2.83;2.60;;;12.20;64.40;12.20;96537.00;;;;5083269;28;20306;-81
2023/05/05 03:16:55;;;;;;;2.77;2.27;;;12.20;64.40;12.20;96544.00;;;;5092126;28;20282;-81
2023/05/05 03:19:24;;;;;;;3.10;2.30;;;12.20;64.50;12.20;96553.00;;;;5082419;28;20192;-81
2023/05/05 03:21:52;;;;;;;2.60;2.20;;;12.10;64.70;12.10;96550.00;;;;5079322;28;20285;-81
2023/05/05 03:24:21;;;;;;;3.70;2.43;;;12.10;64.70;12.10;96553.00;;;;5076540;28;20231;-81
2023/05/05 03:26:50;;;;;;;3.27;2.43;;;12.10;64.70;12.10;96549.00;;;;5085886;28;20692;-81
2023/05/05 03:29:17;;;;;;;2.93;2.43;;;12.10;64.70;12.00;96553.00;;;;5081701;28;20202;-81
2023/05/05 03:31:44;;;;;;;3.47;2.40;;;12.00;64.80;12.00;96550.00;;;;5085156;28;20197;-81
2023/05/05 03:34:11;;;;;;;3.10;2.80;;;12.00;65.00;12.00;96556.00;;;;5075688;28;20648;-81
2023/05/05 03:36:40;;;;;;;3.37;2.53;;;12.00;65.10;12.00;96555.00;;;;5084949;28;20287;-81
2023/05/05 03:39:07;;;;;;;2.70;2.50;;;12.00;65.40;12.00;96557.00;;;;5094171;28;20195;-81
2023/05/05 03:41:35;;;;;;;4.07;2.70;;;12.00;65.50;12.00;96562.00;;;;5083585;28;20188;-82
2023/05/05 03:44:02;;;;;;;3.90;2.60;;;12.00;65.70;12.00;96559.00;;;;5073047;28;20262;-81
2023/05/05 03:46:29;;;;;;;2.80;2.60;;;12.00;65.90;12.00;96560.00;;;;5074644;28;20641;-82
2023/05/05 03:48:57;;;;;;;4.53;2.70;;;12.00;65.90;12.00;96550.00;;;;5081853;28;20281;-81
2023/05/05 03:51:24;;;;;;;4.57;2.80;;;12.00;65.80;12.00;96554.00;;;;5073767;28;20196;-81
2023/05/05 03:53:53;;;;;;;3.07;2.87;;;12.00;65.60;12.00;96551.00;;;;5085201;28;20274;-80
2023/05/05 03:56:20;;;;;;;3.07;2.77;;;12.00;65.60;12.00;96551.00;;;;5078543;28;20271;-80
2023/05/05 03:58:47;;;;;;;4.13;2.63;;;12.00;65.60;12.00;96550.00;;;;5076665;28;20202;-80
2023/05/05 04:01:14;;;;;;;2.47;2.27;;;12.00;65.60;12.00;96548.00;;;;5075153;28;20224;-81
2023/05/05 04:03:42;;;;;;;3.43;2.53;;;12.00;65.50;12.00;96549.00;;;;5083825;28;20303;-82
2023/05/05 04:06:09;;;;;;;3.17;2.67;;;12.00;65.50;12.00;96550.00;;;;5070912;28;20196;-80
2023/05/05 04:08:36;;;;;;;4.07;2.47;;;12.00;65.50;12.00;96544.00;;;;5077373;28;20274;-81
2023/05/05 04:11:05;;;;;;;2.70;2.50;;;12.00;65.40;12.00;96544.00;;;;5074070;28;20199;-81
2023/05/05 04:13:32;;;;;;;2.80;2.60;;;12.00;65.40;12.00;96539.00;;;;5078921;28;20216;-81
2023/05/05 04:15:59;;;;;;;2.93;2.60;;;12.00;65.40;12.00;96547.00;;;;5073190;28;20225;-81
2023/05/05 04:18:27;;;;;;;6.03;3.07;;;12.00;65.50;12.00;96542.00;;;;5054577;28;20203;-83
2023/05/05 04:20:54;;;;;;;2.73;2.53;;;12.00;65.60;12.00;96546.00;;;;5071803;28;20210;-83
2023/05/05 04:23:21;;;;;;;4.53;2.50;;;12.00;65.60;12.00;96552.00;;;;5075191;28;20273;-83
2023/05/05 04:25:49;;;;;;;3.03;2.77;;;11.90;65.70;12.00;96544.00;;;;5073758;28;20202;-83
2023/05/05 04:28:21;;;;;;;3.57;2.80;;;11.90;65.80;12.00;96556.00;;;;5083805;28;20627;-82
2023/05/05 04:30:48;;;;;;;2.97;2.73;;;11.90;66.00;12.00;96560.00;;;;5077436;28;20199;-81
2023/05/05 04:33:15;;;;;;;3.10;2.47;;;11.90;66.10;12.10;96561.00;;;;5079117;28;20276;-83
2023/05/05 04:35:43;;;;;;;3.00;2.70;;;12.00;66.10;12.10;96563.00;;;;5074725;28;20304;-84
2023/05/05 04:38:10;;;;;;;3.47;2.73;;;12.00;66.30;12.10;96562.00;;;;5075286;28;20202;-83
2023/05/05 04:40:40;;;;;;;3.10;2.80;;;12.00;66.50;12.20;96564.00;;;;5073411;28;20192;-84
2023/05/05 04:43:07;;;;;;;3.93;2.60;;;12.00;66.70;12.20;96557.00;;;;5065406;28;20208;-83
2023/05/05 04:45:35;;;;;;;2.80;2.43;;;12.00;66.80;12.30;96575.00;;;;5071611;28;20204;-83
2023/05/05 04:48:03;;;;;;;2.67;2.37;;;12.00;66.90;12.30;96573.00;;;;5070094;28;20199;-84
2023/05/05 04:50:31;;;;;;;3.30;2.63;;;12.10;67.10;12.30;96565.00;;;;5071841;28;20204;-83
2023/05/05 04:52:58;;;;;;;3.67;2.97;;;12.10;67.20;12.40;96570.00;;;;5074991;28;20212;-83
2023/05/05 04:55:25;;;;;;;4.70;3.20;;;12.20;67.30;12.40;96571.00;;;;5078761;28;20243;-81
2023/05/05 04:57:54;;;;;;;3.40;3.00;;;12.20;67.30;12.40;96566.00;;;;5081044;28;20286;-82
2023/05/05 05:00:22;;;;;;;3.93;3.63;;;12.20;67.30;12.50;96573.00;;;;5083698;28;20196;-80
2023/05/05 05:02:52;;;;;;;5.77;3.53;;;12.30;67.50;12.50;96569.00;;;;5090163;28;20207;-82
2023/05/05 05:05:20;;;;;;;4.33;3.33;;;12.30;67.40;12.60;96575.00;;;;5086178;28;20203;-82
2023/05/05 05:07:47;;;;;;;3.87;3.53;;;12.30;67.40;12.60;96573.00;;;;5085471;28;20219;-82
2023/05/05 05:10:15;;;;;;;3.80;3.50;;;12.40;67.60;12.70;96573.00;;;;5075018;28;20211;-81
2023/05/05 05:12:42;;;;;;;3.70;3.40;;;12.40;67.70;12.70;96580.00;;;;5078394;28;20219;-82
2023/05/05 05:15:12;;;;;;;4.10;3.70;;;12.50;67.90;12.80;96572.00;;;;5075604;28;20222;-82
2023/05/05 05:17:40;;;;;;;4.17;3.73;;;12.50;67.90;12.90;96579.00;;;;5073361;28;20673;-83
2023/05/05 05:20:10;;;;;;;7.40;3.80;;;12.60;68.00;13.00;96580.00;;;;5093137;28;20733;-82
2023/05/05 05:22:38;;;;;;;5.83;3.80;;;12.70;68.20;13.10;96587.00;;;;5081146;28;20221;-83
2023/05/05 05:25:06;;;;;;;4.57;3.67;;;12.70;68.20;13.20;96586.00;;;;5094038;28;20831;-83
2023/05/05 05:27:33;;;;;;;4.30;3.90;;;12.80;68.30;13.40;96590.00;;;;5091775;28;20195;-83
2023/05/05 05:30:00;;;;;;;3.63;3.33;;;12.90;68.60;13.50;96583.00;;;;5085195;28;20274;-83
2023/05/05 05:32:28;;;;;;;4.03;3.67;;;13.00;68.90;13.60;96583.00;;;;5082020;28;20221;-83
2023/05/05 05:34:56;;;;;;;4.17;3.77;;;13.20;69.10;13.80;96591.00;;;;5079793;28;20729;-83
2023/05/05 05:37:28;;;;;;;3.70;3.40;;;13.30;69.00;13.90;96587.00;;;;5085452;28;20283;-84
2023/05/05 05:39:55;;;;;;;4.07;3.67;;;13.40;69.00;14.00;96592.00;;;;5089544;28;20654;-83
2023/05/05 05:42:22;;;;;;;3.93;3.63;;;13.50;68.90;14.10;96593.00;;;;5094909;28;20195;-82
2023/05/05 05:44:49;;;;;;;5.47;4.00;;;13.60;68.80;14.20;96593.00;;;;5085460;28;20206;-83
2023/05/05 05:47:17;;;;;;;4.40;4.00;;;13.70;68.80;14.30;96593.00;;;;5093335;28;20729;-82
2023/05/05 05:49:44;;;;;;;6.17;4.20;;;13.80;68.80;14.50;96601.00;;;;5084197;28;20191;-82
2023/05/05 05:52:11;;;;;;;4.13;3.73;;;13.90;68.70;14.60;96594.00;;;;5086514;28;20218;-83
2023/05/05 05:54:40;;;;;;;4.20;3.90;;;14.00;68.60;14.70;96601.00;;;;5093845;28;20271;-82
2023/05/05 05:57:07;;;;;;;4.37;3.90;;;14.20;68.70;14.80;96607.00;;;;5085021;28;20192;-82
2023/05/05 05:59:34;;;;;;;4.07;3.73;;;14.30;68.60;14.90;96600.00;;;;5094671;28;20434;-82
2023/05/05 06:02:02;;;;;;;4.80;3.83;;;14.40;68.40;15.00;96605.00;;;;5090508;28;20195;-82
2023/05/05 06:04:29;;;;;;;4.67;4.07;;;14.50;68.20;15.10;96606.00;;;;5080521;28;20212;-83
2023/05/05 06:06:57;;;;;;;4.20;3.80;;;14.60;68.00;15.20;96608.00;;;;5082792;28;20677;-83
2023/05/05 06:09:24;;;;;;;4.03;3.67;;;14.70;68.10;15.20;96612.00;;;;5075528;28;20674;-83
2023/05/05 06:11:53;;;;;;;5.73;3.87;;;14.70;68.10;15.30;96605.00;;;;5078299;28;20202;-83
2023/05/05 06:14:20;;;;;;;3.90;3.60;;;14.80;68.00;15.50;96607.00;;;;5094285;28;20250;-82
2023/05/05 06:16:47;;;;;;;5.37;3.70;;;14.90;68.20;15.60;96605.00;;;;5078946;28;20294;-83
2023/05/05 06:19:15;;;;;;;4.00;3.70;;;15.00;68.40;15.70;96611.00;;;;5086621;28;20215;-83
2023/05/05 06:21:42;;;;;;;4.50;3.50;;;15.10;68.10;15.80;96609.00;;;;5091755;28;20251;-83
2023/05/05 06:24:09;;;;;;;5.03;3.83;;;15.30;68.00;15.90;96611.00;;;;5092588;28;20226;-83
2023/05/05 06:26:36;;;;;;;3.80;3.50;;;15.40;68.10;16.00;96617.00;;;;5077578;28;20639;-83
2023/05/05 06:29:05;;;;;;;3.90;3.60;;;15.50;68.30;16.10;96621.00;;;;5086877;28;21637;-83
2023/05/05 06:31:32;;;;;;;4.00;3.63;;;15.60;68.30;16.20;96618.00;;;;5088835;28;20203;-83
2023/05/05 06:33:59;;;;;;;4.27;3.87;;;15.70;68.50;16.40;96621.00;;;;5072566;28;20609;-84
2023/05/05 06:36:27;;;;;;;3.90;3.60;;;15.80;68.70;16.50;96619.00;;;;5081068;28;20314;-83
2023/05/05 06:38:54;;;;;;;4.20;3.60;;;15.90;68.40;16.70;96626.00;;;;5093460;28;20201;-83
2023/05/05 06:41:21;;;;;;;3.37;3.10;;;16.10;68.40;16.80;96623.00;;;;5083237;28;20192;-83
2023/05/05 06:43:49;;;;;;;3.90;3.60;;;16.20;68.50;17.00;96623.00;;;;5086897;28;20628;-82
2023/05/05 06:46:17;;;;;;;3.93;3.50;;;16.40;68.70;17.10;96627.00;;;;5077749;28;20572;-83
2023/05/05 06:48:45;;;;;;;3.83;3.53;;;16.50;68.40;17.30;96626.00;;;;5089266;28;20348;-83
2023/05/05 06:51:12;;;;;;;3.73;3.43;;;16.60;68.20;17.40;96614.00;;;;5086702;28;20618;-83
2023/05/05 06:53:39;;;;;;;3.40;3.10;;;16.80;68.10;17.50;96635.00;;;;5092786;28;20243;-84
2023/05/05 06:56:07;;;;;;;4.17;3.77;;;16.90;67.90;17.50;96638.00;;;;5080146;28;20647;-84
2023/05/05 06:58:36;;;;;;;4.10;3.43;;;17.00;67.60;17.60;96626.00;;;;5078690;28;20199;-84
2023/05/05 07:01:04;;;;;;;3.50;3.20;;;17.10;67.30;17.70;96639.00;;;;5087902;28;20249;-84
2023/05/05 07:03:33;;;;;;;3.80;3.50;;;17.10;67.30;17.80;96644.00;;;;5089205;28;21857;-84
2023/05/05 07:06:00;;;;;;;3.67;3.40;;;17.20;67.40;17.90;96633.00;;;;5088019;28;20283;-84
2023/05/05 07:08:27;;;;;;;3.87;3.57;;;17.30;67.30;17.90;96642.00;;;;5076128;28;20278;-84
2023/05/05 07:10:54;;;;;;;3.53;3.23;;;17.40;67.10;18.10;96630.00;;;;5087588;28;20256;-84
2023/05/05 07:13:21;;;;;;;3.40;2.80;;;17.60;67.00;18.20;96637.00;;;;5085427;28;20250;-84
2023/05/05 07:15:49;;;;;;;3.97;3.57;;;17.70;67.10;18.40;96625.00;;;;5090075;28;20927;-84
2023/05/05 07:18:17;;;;;;;4.27;3.40;;;17.80;67.30;18.50;96635.00;;;;5087946;28;20713;-84
2023/05/05 07:20:45;;;;;;;3.23;3.03;;;17.90;67.40;18.70;96633.00;;;;5085025;28;20275;-84
2023/05/05 07:23:13;;;;;;;3.43;3.23;;;18.10;67.50;18.90;96635.00;;;;5076085;28;20330;-84
2023/05/05 07:25:40;;;;;;;3.57;3.20;;;18.20;67.50;19.10;96632.00;;;;5077977;28;20779;-84
2023/05/05 07:28:07;;;;;;;3.83;3.53;;;18.30;67.50;19.30;96620.00;;;;5078721;28;20188;-84
2023/05/05 07:30:34;;;;;;;3.20;2.77;;;18.50;67.20;19.50;96630.00;;;;5085573;28;20204;-84
2023/05/05 07:33:02;;;;;;;3.70;3.40;;;18.70;67.30;19.70;96627.00;;;;5080107;28;20212;-84
2023/05/05 07:35:29;;;;;;;2.87;2.67;;;18.90;67.50;20.00;96634.00;;;;5084241;28;20229;-84
2023/05/05 07:37:58;;;;;;;3.57;3.27;;;19.00;67.20;20.20;96628.00;;;;5065767;28;20248;-84
2023/05/05 07:40:25;;;;;;;3.83;2.97;;;19.20;67.10;20.40;96631.00;;;;5084485;28;20203;-84
2023/05/05 07:42:53;;;;;;;2.80;2.60;;;19.40;66.80;20.60;96631.00;;;;5079481;28;20216;-84
2023/05/05 07:45:20;;;;;;;3.10;2.90;;;19.60;66.90;20.80;96634.00;;;;5085231;28;20897;-83
2023/05/05 07:47:47;;;;;;;3.20;2.90;;;19.80;66.60;21.10;96638.00;;;;5068710;28;20203;-84
2023/05/05 07:50:15;;;;;;;3.73;3.40;;;20.00;66.40;21.30;96624.00;;;;5088083;28;20577;-84
2023/05/05 07:52:42;;;;;;;3.57;3.27;;;20.20;66.00;21.50;96628.00;;;;5084080;28;20226;-83
2023/05/05 07:55:11;;;;;;;3.00;2.80;;;20.40;66.00;21.70;96628.00;;;;5077515;28;20565;-84
2023/05/05 07:57:38;;;;;;;7.27;3.17;;;20.60;65.60;22.00;96625.00;;;;5080834;28;20205;-83
2023/05/05 08:00:08;;;;;;;3.37;3.03;;;20.80;64.90;22.20;96628.00;;;;5077642;28;20200;-84
2023/05/05 08:02:36;;;;;;;3.17;2.97;;;21.00;64.90;22.40;96625.00;;;;5081793;28;20197;-84
2023/05/05 08:05:03;;;;;;;2.97;2.77;;;21.30;64.80;22.60;96629.00;;;;5077687;28;20192;-83
2023/05/05 08:07:30;;;;;;;2.83;2.53;;;21.50;64.20;22.90;96633.00;;;;5092814;28;20274;-83
2023/05/05 08:09:58;;;;;;;3.23;2.70;;;21.70;64.20;23.10;96631.00;;;;5086079;28;20244;-81
2023/05/05 08:12:27;;;;;;;3.10;2.90;;;21.90;64.20;23.40;96631.00;;;;5090650;28;20672;-84
2023/05/05 08:14:54;;;;;;;5.50;2.90;;;22.10;63.50;23.60;96633.00;;;;5073050;28;20578;-81
2023/05/05 08:17:24;;;;;;;3.50;3.07;;;22.30;63.30;23.90;96632.00;;;;5085922;28;20692;-80
2023/05/05 08:19:53;;;;;;;2.90;2.70;;;22.50;63.10;24.10;96634.00;;;;5074801;28;20572;-80
2023/05/05 08:22:21;;;;;;;3.73;3.43;;;22.70;62.80;24.40;96638.00;;;;5074416;28;20222;-80
2023/05/05 08:24:48;;;;;;;3.60;3.03;;;22.90;62.90;24.60;96635.00;;;;5066101;28;20203;-80
2023/05/05 08:27:16;;;;;;;3.97;3.40;;;23.10;62.60;24.90;96644.00;;;;5079189;28;20200;-80
2023/05/05 08:29:44;;;;;;;3.37;3.03;;;23.30;62.20;25.10;96641.00;;;;5086498;28;20207;-82
2023/05/05 08:32:12;;;;;;;3.20;3.00;;;23.50;61.50;25.40;96633.00;;;;5080247;28;20191;-82
2023/05/05 08:34:39;;;;;;;4.27;3.40;;;23.70;61.60;25.60;96645.00;;;;5086078;28;20302;-81
2023/05/05 08:37:06;;;;;;;3.23;2.93;;;24.00;60.80;25.90;96638.00;;;;5079842;28;20218;-82
2023/05/05 08:39:33;;;;;;;3.23;2.97;;;24.20;60.60;26.10;96632.00;;;;5077064;28;20655;-82
2023/05/05 08:42:01;;;;;;;3.20;2.90;;;24.40;60.00;26.40;96632.00;;;;5082431;28;20271;-82
2023/05/05 08:44:28;;;;;;;3.97;3.43;;;24.60;59.10;26.60;96634.00;;;;5077828;28;20280;-80
2023/05/05 08:47:00;;;;;;;3.50;3.20;;;24.80;58.60;26.80;96641.00;;;;5092095;28;20199;-80
2023/05/05 08:49:32;;;;;;;3.03;2.83;;;25.00;58.00;27.00;96638.00;;;;5099767;28;20296;-80
2023/05/05 08:52:05;;;;;;;2.87;2.67;;;25.20;57.70;27.20;96633.00;;;;5090195;28;20287;-80
2023/05/05 08:54:38;;;;;;;3.03;2.83;;;25.50;57.60;27.40;96640.00;;;;5081397;28;20215;-80
2023/05/05 08:57:10;;;;;;;2.80;2.60;;;25.70;57.50;27.70;96643.00;;;;5106483;28;20797;-82
2023/05/05 08:59:38;;;;;;;3.10;2.80;;;25.90;57.60;27.90;96645.00;;;;5079135;28;20191;-81
2023/05/05 09:02:10;;;;;;;2.93;2.70;;;26.10;57.50;28.10;96647.00;;;;5081177;28;20286;-82
2023/05/05 09:04:38;;;;;;;3.07;2.80;;;26.40;57.10;28.30;96654.00;;;;5069504;28;20288;-81
2023/05/05 09:07:06;;;;;;;3.03;2.83;;;26.60;56.90;28.50;96652.00;;;;5075223;28;20211;-82
2023/05/05 09:09:34;;;;;;;3.33;3.03;;;26.80;56.30;28.70;96644.00;;;;5082740;28;20661;-82
2023/05/05 09:12:02;;;;;;;3.28;3.08;;;27.00;56.00;28.90;96652.00;;;;5076540;28;20222;-83
2023/05/05 09:14:30;;;;;;;2.92;2.55;;;27.20;55.40;29.10;96652.00;;;;5087736;28;20221;-82
2023/05/05 09:16:57;;;;;;;2.97;2.78;;;27.40;55.40;29.40;96653.00;;;;5080374;28;20223;-81
2023/05/05 09:19:26;;;;;;;2.90;2.70;;;27.60;54.60;29.60;96649.00;;;;5095783;28;20680;-82
2023/05/05 09:21:54;;;;;;;3.25;2.65;;;27.80;54.20;29.80;96648.00;;;;5083998;28;20287;-81
2023/05/05 09:24:21;;;;;;;3.45;3.10;;;28.00;54.20;30.10;96657.00;;;;5084987;28;20219;-82
2023/05/05 09:26:49;;;;;;;3.13;2.85;;;28.20;53.70;30.30;96644.00;;;;5085965;28;20201;-82
2023/05/05 09:29:20;;;;;;;3.03;2.80;;;28.40;53.90;30.50;96651.00;;;;5093267;28;20652;-82
2023/05/05 09:32:07;;;;;;;2.97;2.78;;;28.60;53.30;30.80;96648.00;;;;5076884;28;20248;-81
2023/05/05 09:34:36;;;;;;;3.42;3.22;;;28.80;51.70;31.00;96651.00;;;;5091173;28;20212;-81
2023/05/05 09:37:04;;;;;;;3.72;3.47;;;29.00;52.90;31.20;96650.00;;;;5079856;28;20222;-82
2023/05/05 09:39:32;;;;;;;3.20;3.00;;;29.20;52.80;31.40;96648.00;;;;5093289;28;20199;-82
2023/05/05 09:42:00;;;;;;;3.78;3.42;;;29.50;53.00;31.60;96648.00;;;;5078801;28;20754;-82
2023/05/05 09:44:38;;;;;;;4.38;3.53;;;29.70;52.40;31.70;96647.00;;;;5088430;28;20222;-82
2023/05/05 09:47:06;;;;;;;4.65;3.22;;;29.90;50.70;31.80;96650.00;;;;5069860;28;20215;-83
2023/05/05 09:49:35;;;;;;;2.47;2.28;;;30.10;51.50;31.90;96642.00;;;;5090424;28;20205;-81
2023/05/05 09:52:14;;;;;;;2.47;2.28;;;30.30;51.00;32.00;96650.00;;;;5080633;28;20628;-82
2023/05/05 09:54:42;;;;;;;3.30;2.40;;;30.40;49.70;32.10;96650.00;;;;5075565;28;20207;-83
2023/05/05 09:57:25;;;;;;;2.70;2.55;;;30.60;50.50;32.20;96653.00;;;;5070878;28;20216;-83
2023/05/05 09:59:57;;;;;;;3.80;2.47;;;30.80;50.00;32.30;96648.00;;;;5073239;28;20191;-82
2023/05/05 10:02:33;;;;;;;2.70;2.50;;;30.90;49.90;32.40;96652.00;;;;5082879;28;20217;-82
2023/05/05 10:05:07;;;;;;;2.60;2.40;;;31.10;48.70;32.50;96650.00;;;;5088500;28;20203;-82
2023/05/05 10:07:37;;;;;;;3.42;2.35;;;31.20;49.10;32.60;96649.00;;;;5073231;28;20199;-83
2023/05/05 10:10:07;;;;;;;2.53;2.33;;;31.40;49.60;32.80;96645.00;;;;5082127;28;20283;-83
2023/05/05 10:12:36;;;;;;;2.15;2.05;;;31.50;49.20;32.80;96648.00;;;;5080837;28;20294;-80
2023/05/05 10:15:05;;;;;;;2.13;2.00;;;31.60;48.50;32.80;96643.00;;;;5080785;28;20196;-82
2023/05/05 10:17:37;;;;;;;2.55;2.35;;;31.70;48.30;32.70;96648.00;;;;5086214;28;20640;-83
2023/05/05 10:20:09;;;;;;;2.00;1.90;;;31.70;47.70;32.60;96646.00;;;;5086010;28;20287;-82
2023/05/05 10:22:43;;;;;;;2.53;2.10;;;31.70;47.90;32.50;96642.00;;;;5075861;28;20279;-83
2023/05/05 10:25:13;;;;;;;1.65;1.55;;;31.70;47.30;32.50;96642.00;;;;5085430;28;20713;-83
2023/05/05 10:27:44;;;;;;;2.38;1.75;;;31.70;46.70;32.40;96645.00;;;;5081830;28;20275;-83
2023/05/05 10:30:23;;;;;;;1.80;1.70;;;31.70;46.40;32.30;96645.00;;;;5081093;28;20196;-83
2023/05/05 10:32:55;;;;;;;2.10;2.00;;;31.60;46.10;32.20;96629.00;;;;5091154;28;20211;-82
2023/05/05 10:35:26;;;;;;;2.10;1.80;;;31.60;47.40;32.10;96633.00;;;;5076252;28;20672;-82
2023/05/05 10:37:56;;;;;;;4.07;1.90;;;31.60;46.80;31.90;96627.00;;;;5088928;28;20302;-82
2023/05/05 10:40:25;;;;;;;2.65;2.20;;;31.50;46.60;31.80;96631.00;;;;5082917;28;20197;-82
2023/05/05 10:42:54;;;;;;;3.50;2.15;;;31.40;47.30;31.70;96625.00;;;;5083587;28;20566;-83
2023/05/05 10:45:21;;;;;;;2.25;2.05;;;31.30;46.80;31.70;96624.00;;;;5076652;28;20575;-84
2023/05/05 10:47:52;;;;;;;3.22;2.30;;;31.20;46.90;31.50;96622.00;;;;5082571;28;20660;-81
2023/05/05 10:50:29;;;;;;;2.30;2.20;;;31.10;46.40;31.30;96612.00;;;;5084289;28;20337;-81
2023/05/05 10:53:12;;;;;;;2.15;1.98;;;31.00;45.80;31.10;96626.00;;;;5091546;28;20339;-84
2023/05/05 10:55:53;;;;;;;2.20;2.10;;;30.80;45.10;30.70;96621.00;;;;5069779;28;20207;-84
2023/05/05 10:58:34;;;;;;;2.15;1.95;;;30.50;45.30;30.40;96615.00;;;;5082110;28;20322;-83
2023/05/05 11:01:02;;;;;;;2.63;2.42;;;30.30;44.80;30.10;96615.00;;;;5083612;28;20242;-84
2023/05/05 11:03:30;;;;;;;2.10;2.00;;;30.10;45.70;29.80;96611.00;;;;5090178;28;20751;-84
2023/05/05 11:06:13;;;;;;;2.17;2.08;;;29.80;45.80;29.60;96605.00;;;;5082480;28;20296;-83